createdAt,value
2018-12-18T00:00:48.283Z,21.80
2018-12-18T00:03:42.982Z,19.17
2018-12-18T00:06:40.085Z,17.13
2018-12-18T00:09:28.357Z,18.33
2018-12-18T00:12:16.814Z,15.73
2018-12-18T00:15:06.987Z,17.00
2018-12-18T00:17:58.121Z,18.20
2018-12-18T00:20:51.152Z,19.20
2018-12-18T00:23:43.483Z,19.43
2018-12-18T00:26:34.873Z,18.07
2018-12-18T00:29:24.549Z,18.83
2018-12-18T00:32:21.826Z,18.83
2018-12-18T00:35:13.683Z,19.27
2018-12-18T00:38:03.961Z,18.07
2018-12-18T00:40:52.098Z,19.37
2018-12-18T00:43:39.626Z,17.73
2018-12-18T00:46:29.333Z,20.70
2018-12-18T00:49:16.941Z,20.47
2018-12-18T00:52:09.155Z,17.67
2018-12-18T00:54:57.154Z,19.23
2018-12-18T01:00:50.569Z,23.62
2018-12-18T01:03:37.702Z,19.47
2018-12-18T01:09:32.110Z,16.43
2018-12-18T01:12:23.881Z,17.57
2018-12-18T01:21:26.001Z,19.60
2018-12-18T01:24:14.034Z,16.93
2018-12-18T01:27:01.666Z,20.73
2018-12-18T01:29:50.258Z,18.83
2018-12-18T01:32:37.466Z,20.73
2018-12-18T01:35:25.898Z,21.03
2018-12-18T01:38:14.110Z,18.90
2018-12-18T01:41:04.794Z,23.08
2018-12-18T01:43:53.634Z,21.53
2018-12-18T01:46:44.590Z,22.27
2018-12-18T01:49:33.521Z,22.03
2018-12-18T01:52:21.230Z,17.90
2018-12-18T01:55:09.374Z,23.12
2018-12-18T01:57:56.623Z,19.57
2018-12-18T02:00:45.064Z,19.70
2018-12-18T02:03:38.199Z,19.70
2018-12-18T02:06:25.806Z,22.90
2018-12-18T02:09:13.170Z,19.80
2018-12-18T02:12:02.634Z,20.47
2018-12-18T02:14:51.258Z,20.07
2018-12-18T02:17:38.612Z,21.60
2018-12-18T02:20:26.433Z,17.67
2018-12-18T02:23:17.126Z,25.37
2018-12-18T02:26:05.327Z,22.30
2018-12-18T02:28:53.014Z,19.47
2018-12-18T02:31:41.437Z,21.73
2018-12-18T02:37:37.615Z,20.63
2018-12-18T02:40:34.640Z,21.57
2018-12-18T02:43:22.035Z,20.60
2018-12-18T02:46:10.374Z,21.47
2018-12-18T02:48:59.180Z,21.13
2018-12-18T02:51:50.617Z,20.80
2018-12-18T02:57:46.609Z,22.00
2018-12-18T03:00:34.161Z,22.47
2018-12-18T03:03:30.062Z,27.13
2018-12-18T03:09:24.305Z,19.33
2018-12-18T03:18:27.035Z,25.83
2018-12-18T03:21:15.606Z,20.70
2018-12-18T03:24:03.288Z,20.93
2018-12-18T03:29:56.684Z,24.45
2018-12-18T03:32:44.985Z,24.50
2018-12-18T03:35:39.259Z,22.90
2018-12-18T03:38:26.974Z,21.47
2018-12-18T03:41:18.537Z,20.77
2018-12-18T03:44:07.275Z,21.00
2018-12-18T03:46:54.248Z,21.00
2018-12-18T03:49:41.790Z,24.70
2018-12-18T03:52:29.919Z,19.03
2018-12-18T03:55:18.183Z,23.00
2018-12-18T04:01:11.860Z,23.23
2018-12-18T04:07:05.936Z,22.83
2018-12-18T04:09:53.321Z,23.07
2018-12-18T04:12:42.163Z,19.50
2018-12-18T04:15:29.731Z,19.77
2018-12-18T04:18:20.269Z,23.03
2018-12-18T04:21:10.929Z,25.13
2018-12-18T04:23:57.999Z,17.73
2018-12-18T04:26:44.907Z,24.00
2018-12-18T04:29:34.052Z,25.23
2018-12-18T04:32:22.673Z,23.67
2018-12-18T04:35:10.731Z,25.17
2018-12-18T04:38:00.744Z,21.23
2018-12-18T04:40:49.810Z,19.37
2018-12-18T04:43:37.018Z,20.10
2018-12-18T04:46:25.332Z,22.27
2018-12-18T04:49:16.377Z,23.33
2018-12-18T04:52:03.886Z,19.60
2018-12-18T04:54:52.028Z,18.13
2018-12-18T04:57:39.392Z,19.67
2018-12-18T05:00:28.652Z,18.60
2018-12-18T05:03:16.994Z,21.20
2018-12-18T05:06:04.663Z,18.60
2018-12-18T05:08:56.039Z,18.10
2018-12-18T05:11:51.382Z,18.57
2018-12-18T05:14:47.110Z,17.50
2018-12-18T05:20:41.753Z,22.93
2018-12-18T05:23:28.920Z,32.43
2018-12-18T05:26:16.698Z,26.17
2018-12-18T05:29:12.359Z,24.40
2018-12-18T05:32:01.525Z,20.80
2018-12-18T05:34:56.457Z,22.43
2018-12-18T05:37:55.893Z,21.40
2018-12-18T05:40:43.018Z,20.23
2018-12-18T05:49:44.336Z,24.17
2018-12-18T05:52:31.957Z,19.53
2018-12-18T05:55:19.221Z,23.80
2018-12-18T05:58:07.735Z,25.10
2018-12-18T06:04:04.549Z,25.53
2018-12-18T06:06:52.197Z,26.25
2018-12-18T06:09:47.886Z,24.60
2018-12-18T06:12:35.144Z,25.87
2018-12-18T06:15:22.417Z,20.00
2018-12-18T06:18:09.352Z,21.77
2018-12-18T06:20:56.664Z,19.43
2018-12-18T06:23:44.512Z,19.70
2018-12-18T06:26:33.062Z,17.77
2018-12-18T06:29:20.253Z,17.70
2018-12-18T06:32:08.082Z,21.20
2018-12-18T06:35:09.994Z,30.35
2018-12-18T06:37:59.358Z,24.07
2018-12-18T06:40:47.236Z,26.57
2018-12-18T06:43:37.471Z,22.65
2018-12-18T06:46:25.763Z,22.58
2018-12-18T06:49:14.359Z,18.20
2018-12-18T06:52:04.441Z,16.83
2018-12-18T06:54:51.949Z,16.13
2018-12-18T06:57:43.193Z,17.20
2018-12-18T07:00:30.361Z,17.67
2018-12-18T07:03:17.862Z,19.53
2018-12-18T07:06:10.021Z,19.57
2018-12-18T07:08:57.176Z,21.00
2018-12-18T07:11:44.760Z,21.67
2018-12-18T07:14:32.217Z,17.67
2018-12-18T07:17:19.617Z,16.00
2018-12-18T07:20:06.978Z,18.30
2018-12-18T07:22:54.593Z,18.43
2018-12-18T07:25:42.159Z,18.83
2018-12-18T07:28:29.619Z,16.97
2018-12-18T07:31:17.064Z,19.70
2018-12-18T07:34:05.262Z,19.90
2018-12-18T07:37:00.372Z,16.93
2018-12-18T07:42:54.203Z,16.30
2018-12-18T07:45:49.390Z,17.60
2018-12-18T07:48:46.943Z,18.57
2018-12-18T07:51:36.815Z,21.40
2018-12-18T07:54:26.333Z,17.80
2018-12-18T07:57:29.682Z,19.57
2018-12-18T08:06:38.865Z,19.40
2018-12-18T08:12:37.690Z,16.97
2018-12-18T08:18:36.289Z,23.23
2018-12-18T08:21:24.391Z,21.13
2018-12-18T08:24:12.764Z,18.70
2018-12-18T08:33:21.553Z,16.80
2018-12-18T08:42:22.809Z,18.70
2018-12-18T08:48:17.253Z,19.73
2018-12-18T08:51:09.259Z,20.27
2018-12-18T08:53:58.525Z,22.53
2018-12-18T09:12:22.180Z,17.70
2018-12-18T09:15:27.618Z,15.23
2018-12-18T09:18:19.469Z,19.27
2018-12-18T09:21:06.588Z,13.13
2018-12-18T09:24:09.686Z,13.40
2018-12-18T09:30:04.557Z,19.58
2018-12-18T09:32:51.810Z,18.67
2018-12-18T09:35:41.598Z,15.80
2018-12-18T09:42:12.466Z,14.57
2018-12-18T10:10:08.525Z,14.30
2018-12-18T10:13:04.282Z,14.57
2018-12-18T10:15:55.315Z,17.13
2018-12-18T10:18:43.617Z,17.20
2018-12-18T10:21:31.195Z,13.70
2018-12-18T10:30:52.290Z,16.63
2018-12-18T10:36:49.678Z,16.92
2018-12-18T10:45:52.904Z,13.33
2018-12-18T10:51:50.136Z,14.03
2018-12-18T10:54:47.607Z,14.03
2018-12-18T10:57:35.577Z,16.03
2018-12-18T11:00:41.371Z,17.57
2018-12-18T11:03:28.729Z,18.43
2018-12-18T11:06:16.708Z,15.67
2018-12-18T11:09:23.099Z,17.12
2018-12-18T11:12:28.189Z,16.13
2018-12-18T11:15:16.658Z,15.33
2018-12-18T11:18:04.032Z,13.37
2018-12-18T11:27:13.676Z,12.90
2018-12-18T11:33:16.036Z,13.37
2018-12-18T11:36:16.396Z,14.43
2018-12-18T11:39:01.009Z,14.20
2018-12-18T11:41:50.193Z,15.07
2018-12-18T11:44:41.385Z,12.80
2018-12-18T11:50:39.213Z,11.77
2018-12-18T11:53:34.854Z,10.73
2018-12-18T11:56:22.851Z,7.43
2018-12-18T11:59:16.006Z,6.33
2018-12-18T12:02:02.920Z,6.93
2018-12-18T12:04:50.768Z,8.83
2018-12-18T12:10:45.870Z,6.03
2018-12-18T12:13:33.324Z,8.73
2018-12-18T12:16:20.686Z,7.40
2018-12-18T12:19:09.120Z,6.97
2018-12-18T12:28:15.448Z,6.50
2018-12-18T12:31:05.415Z,8.40
2018-12-18T12:33:53.048Z,5.13
2018-12-18T12:36:42.635Z,8.17
2018-12-18T12:39:30.915Z,7.57
2018-12-18T12:42:36.760Z,8.03
2018-12-18T12:45:25.194Z,6.33
2018-12-18T12:48:13.168Z,5.20
2018-12-18T12:51:03.413Z,5.80
2018-12-18T12:53:50.976Z,6.67
2018-12-18T12:56:38.300Z,9.50
2018-12-18T12:59:25.973Z,8.43
2018-12-18T13:02:16.699Z,6.33
2018-12-18T13:05:04.156Z,7.78
2018-12-18T13:07:51.975Z,8.57
2018-12-18T13:10:40.329Z,6.20
2018-12-18T13:13:28.453Z,7.90
2018-12-18T13:16:15.772Z,7.13
2018-12-18T13:25:16.981Z,6.50
2018-12-18T13:28:04.347Z,5.53
2018-12-18T13:34:02.349Z,5.80
2018-12-18T13:40:01.509Z,7.85
2018-12-18T13:42:51.621Z,6.63
2018-12-18T13:48:47.394Z,7.47
2018-12-18T13:51:34.873Z,8.33
2018-12-18T13:54:22.156Z,6.63
2018-12-18T13:57:13.613Z,7.73
2018-12-18T14:00:01.058Z,9.10
2018-12-18T14:02:49.661Z,7.37
2018-12-18T14:05:37.629Z,8.43
2018-12-18T14:08:25.856Z,6.77
2018-12-18T14:14:20.406Z,5.97
2018-12-18T14:17:16.959Z,5.80
2018-12-18T14:20:04.994Z,8.00
2018-12-18T14:22:52.343Z,7.00
2018-12-18T14:25:42.966Z,4.07
2018-12-18T14:28:31.703Z,5.47
2018-12-18T14:31:19.635Z,8.60
2018-12-18T14:34:06.918Z,6.70
2018-12-18T14:36:56.347Z,7.03
2018-12-18T14:39:42.107Z,7.20
2018-12-18T14:42:30.210Z,6.10
2018-12-18T14:45:18.184Z,5.10
2018-12-18T14:48:09.295Z,6.07
2018-12-18T14:50:56.845Z,6.20
2018-12-18T14:53:45.444Z,5.47
2018-12-18T14:56:34.088Z,7.63
2018-12-18T14:59:21.434Z,9.50
2018-12-18T15:02:10.745Z,6.93
2018-12-18T15:04:58.697Z,8.43
2018-12-18T15:07:47.023Z,6.23
2018-12-18T15:10:44.350Z,7.80
2018-12-18T15:13:33.790Z,7.60
2018-12-18T15:16:21.326Z,6.80
2018-12-18T15:19:08.860Z,8.23
2018-12-18T15:21:56.381Z,6.50
2018-12-18T15:28:05.261Z,9.17
2018-12-18T15:30:59.084Z,6.30
2018-12-18T15:33:46.498Z,10.02
2018-12-18T15:36:44.137Z,8.60
2018-12-18T15:39:31.390Z,7.80
2018-12-18T15:45:26.617Z,8.13
2018-12-18T15:48:13.962Z,7.07
2018-12-18T15:51:01.643Z,9.63
2018-12-18T15:53:48.957Z,6.10
2018-12-18T15:56:36.295Z,7.87
2018-12-18T15:59:24.559Z,7.53
2018-12-18T16:02:13.649Z,8.17
2018-12-18T16:05:01.495Z,7.80
2018-12-18T16:08:05.336Z,5.67
2018-12-18T16:10:52.709Z,7.37
2018-12-18T16:13:39.911Z,5.93
2018-12-18T16:16:27.253Z,6.30
2018-12-18T16:19:14.500Z,7.37
2018-12-18T16:22:02.103Z,6.67
2018-12-18T16:24:49.204Z,8.47
2018-12-18T16:27:46.885Z,10.73
2018-12-18T16:30:34.227Z,8.90
2018-12-18T16:33:21.549Z,7.33
2018-12-18T16:36:08.948Z,7.73
2018-12-18T16:38:56.396Z,11.07
2018-12-18T16:41:43.765Z,9.95
2018-12-18T16:44:31.303Z,12.57
2018-12-18T16:47:18.861Z,9.53
2018-12-18T16:50:07.116Z,9.33
2018-12-18T16:52:54.432Z,8.20
2018-12-18T16:55:41.635Z,12.77
2018-12-18T16:58:31.141Z,10.03
2018-12-18T17:01:18.215Z,14.63
2018-12-18T17:04:05.546Z,11.40
2018-12-18T17:06:53.277Z,11.33
2018-12-18T17:09:40.498Z,10.33
2018-12-18T17:12:38.715Z,10.70
2018-12-18T17:15:39.585Z,12.43
2018-12-18T17:18:26.914Z,9.27
2018-12-18T17:21:14.405Z,12.47
2018-12-18T17:24:06.089Z,10.80
2018-12-18T17:26:53.198Z,13.77
2018-12-18T17:29:40.678Z,10.33
2018-12-18T17:32:31.864Z,12.13
2018-12-18T17:35:19.277Z,14.33
2018-12-18T17:38:06.508Z,13.23
2018-12-18T17:40:53.975Z,12.93
2018-12-18T17:43:41.483Z,10.37
2018-12-18T17:46:28.888Z,8.87
2018-12-18T17:49:17.791Z,12.43
2018-12-18T17:52:09.069Z,9.87
2018-12-18T17:54:55.963Z,12.27
2018-12-18T18:00:49.587Z,12.73
2018-12-18T18:03:36.985Z,11.95
2018-12-18T18:06:25.215Z,14.20
2018-12-18T18:09:12.895Z,12.60
2018-12-18T18:12:03.347Z,14.43
2018-12-18T18:14:51.463Z,17.27
2018-12-18T18:17:38.972Z,11.67
2018-12-18T18:20:34.313Z,14.00
2018-12-18T18:23:25.334Z,14.57
2018-12-18T18:26:20.997Z,12.27
2018-12-18T18:32:15.457Z,12.90
2018-12-18T18:35:02.854Z,12.43
2018-12-18T18:37:50.336Z,14.18
2018-12-18T18:40:38.091Z,12.83
2018-12-18T18:43:27.381Z,11.43
2018-12-18T18:46:16.470Z,13.53
2018-12-18T18:49:03.874Z,13.53
2018-12-18T18:51:51.633Z,14.93
2018-12-18T18:54:38.758Z,14.50
2018-12-18T18:57:26.000Z,16.25
2018-12-18T19:00:13.534Z,14.63
2018-12-18T19:03:03.671Z,14.00
2018-12-18T19:05:50.978Z,14.63
2018-12-18T19:08:39.370Z,13.63
2018-12-18T19:11:26.285Z,11.47
2018-12-18T19:14:21.475Z,14.20
2018-12-18T19:17:24.906Z,13.73
2018-12-18T19:20:12.787Z,13.50
2018-12-18T19:23:00.488Z,15.70
2018-12-18T19:25:47.810Z,16.12
2018-12-18T19:28:35.492Z,16.20
2018-12-18T19:31:23.323Z,13.40
2018-12-18T19:34:10.751Z,16.30
2018-12-18T19:37:02.071Z,13.23
2018-12-18T19:39:49.626Z,16.00
2018-12-18T19:42:37.546Z,16.30
2018-12-18T19:45:25.310Z,15.17
2018-12-18T19:48:12.941Z,19.80
2018-12-18T19:51:00.847Z,16.10
2018-12-18T19:53:49.138Z,15.73
2018-12-18T19:56:36.484Z,15.93
2018-12-18T20:02:38.859Z,15.27
2018-12-18T20:05:27.539Z,16.07
2018-12-18T20:08:14.687Z,16.57
2018-12-18T20:11:01.744Z,17.93
2018-12-18T20:13:49.573Z,16.00
2018-12-18T20:16:39.024Z,15.37
2018-12-18T20:19:27.272Z,14.10
2018-12-18T20:22:17.155Z,14.73
2018-12-18T20:25:04.808Z,13.47
2018-12-18T20:27:51.960Z,16.73
2018-12-18T20:30:39.285Z,14.50
2018-12-18T20:33:27.013Z,17.30
2018-12-18T20:36:14.689Z,16.17
2018-12-18T20:39:02.277Z,15.93
2018-12-18T20:41:49.947Z,14.90
2018-12-18T20:44:37.906Z,16.67
2018-12-18T20:47:25.725Z,17.13
2018-12-18T20:50:13.158Z,17.13
2018-12-18T20:53:01.988Z,14.53
2018-12-18T20:55:52.793Z,15.47
2018-12-18T20:58:43.928Z,18.03
2018-12-18T21:01:31.018Z,18.12
2018-12-18T21:04:18.699Z,16.47
2018-12-18T21:07:07.731Z,18.33
2018-12-18T21:09:55.148Z,18.67
2018-12-18T21:12:42.583Z,20.20
2018-12-18T21:15:30.550Z,17.43
2018-12-18T21:18:18.797Z,17.57
2018-12-18T21:21:15.398Z,14.40
2018-12-18T21:23:56.835Z,14.60
2018-12-18T21:26:45.060Z,13.70
2018-12-18T21:29:33.706Z,19.13
2018-12-18T21:32:20.683Z,16.97
2018-12-18T21:35:08.642Z,16.23
2018-12-18T21:37:55.970Z,16.07
2018-12-18T21:40:46.728Z,17.47
2018-12-18T21:43:34.737Z,14.73
2018-12-18T21:46:22.213Z,13.40
2018-12-18T21:49:10.196Z,14.03
2018-12-18T21:52:14.358Z,16.97
2018-12-18T21:55:01.632Z,15.17
2018-12-18T21:57:49.099Z,13.60
2018-12-18T22:00:39.134Z,15.17
2018-12-18T22:03:25.963Z,14.90
2018-12-18T22:06:13.717Z,14.50
2018-12-18T22:09:02.250Z,16.40
2018-12-18T22:11:50.475Z,15.27
2018-12-18T22:14:38.630Z,15.30
2018-12-18T22:17:30.396Z,20.12
2018-12-18T22:20:24.719Z,17.47
2018-12-18T22:23:15.412Z,15.67
2018-12-18T22:26:11.020Z,14.40
2018-12-18T22:29:03.124Z,14.40
2018-12-18T22:31:51.090Z,21.30
2018-12-18T22:34:40.780Z,16.77
2018-12-18T22:37:27.809Z,20.45
2018-12-18T22:40:15.128Z,19.77
2018-12-18T22:43:02.944Z,15.83
2018-12-18T22:45:53.633Z,18.10
2018-12-18T22:48:42.264Z,15.07
2018-12-18T22:51:29.629Z,16.83
2018-12-18T22:54:16.496Z,20.43
2018-12-18T22:57:07.313Z,17.00
2018-12-18T22:59:54.469Z,21.50
2018-12-18T23:02:42.082Z,17.33
2018-12-18T23:05:29.372Z,18.73
2018-12-18T23:08:17.020Z,15.87
2018-12-18T23:11:04.259Z,17.20
2018-12-18T23:13:53.110Z,15.67
2018-12-18T23:16:40.537Z,18.00
2018-12-18T23:19:28.022Z,22.00
2018-12-18T23:25:21.795Z,20.93
2018-12-18T23:28:08.903Z,19.43
2018-12-18T23:30:56.450Z,23.43
2018-12-18T23:33:43.879Z,19.77
2018-12-18T23:36:31.243Z,20.50
2018-12-18T23:39:18.999Z,25.67
2018-12-18T23:42:10.175Z,24.60
2018-12-18T23:44:57.493Z,24.47
2018-12-18T23:47:45.612Z,34.50
2018-12-18T23:50:33.676Z,31.60
2018-12-18T23:53:25.153Z,34.40
2018-12-18T23:56:09.618Z,29.37
2018-12-18T23:58:56.791Z,26.67
